METAR
Diposting tanggal: 30 November 2018

Pukul : 00.30 UTC

Isi :

METAR WAGI 180030Z 32005KT 7000 BKN011 24/23 Q1013 NOSIG=